Hammondville, Alabama
Current Conditions -  °F | °C
As of 10:35 AM on Thursday 29 Jan 2015 (Local Time) from K4A9 Reporting Station
Light Rain Light Rain  
Wind Chill: 41°   Ceiling: 12000
Heat Index: 46°   Visibility: 10mi
Dew Point: 28°   Wind: 10mph
Humidity: 50%   Direction: 190°S
Pressure: 30.2"   Gusts: 16mph
Location:  34.5704°N, 85.6428°W
Report Text: K4A9 291635Z AUTO 19009G14KT 10SM -RA SCT090 BKN120 08/M02 A3020 RMK AO2
Loading
Personal Weather Stations






























Interactive Weather Map New forecast layout! Learn more

10-Day Weather Forecast

Advertisements
Track Severe Weather on mobile